Bangkok, Thailand

9:54 PM ICT on October 01, 2014 (GMT +0700)
Patumwan Demonstration School | Change Station
CLOSE
Current Station
Personal Weather Station
Location: Bangkok,
Elevation: 46 ft
Nearby Weather Stations

Elev 46 ft 13.74 °N, 100.53 °E | Updated 13 minutes ago

Overcast
Overcast
83.6 °F
Feels Like 92 °F
N
0.0
Wind Variable Wind from ENE
Gusts 4.0 mph

Today
High -- | Low -- °F
--% Chance of Precip.
Yesterday
High -- | Low -- °F
Precip. -- in
6:07 AM 6:07 PM
Waxing Crescent, 48% visible
Pressure 29.86 in
Visibility 4.3 miles
Clouds Few 1800 ft
Scattered Clouds 3000 ft
Mostly Cloudy 30000 ft
Heat Index 92 °F
Dew Point 75 °F
Humidity 76%
Rainfall 0.00 in
Snow Depth Not available.
UV 0.0 out of 12
Pollen Not available.
Air Quality Not available.
Flu Activity Not available.
METAR VTBD 011430Z 04007KT 010V070 7000 -TSRA FEW018CB SCT030 BKN300 25/22 Q1011 RERA NOSIG

More Conditions Fewer Conditions

Pressure 29.86 in
Visibility 4.3 miles
Clouds Few 1800 ft
Scattered Clouds 3000 ft
Mostly Cloudy 30000 ft
Heat Index 92 °F
Dew Point 75 °F
Humidity 76%
Rainfall 0.00 in
Snow Depth Not available.
UV 0.0 out of 12
Pollen Not available.
Air Quality Not available.
Flu Activity Not available.
METAR VTBD 011430Z 04007KT 010V070 7000 -TSRA FEW018CB SCT030 BKN300 25/22 Q1011 RERA NOSIG

More Conditions Fewer Conditions

10-Day Weather Forecast

Almanac

Astronomy

Oct. 01, 2014 Rise Set
Actual Time 6:07 AM ICT 6:07 PM ICT
Civil Twilight 5:46 AM ICT 6:29 PM ICT
Nautical Twilight 5:21 AM ICT 6:53 PM ICT
Astronomical Twilight 4:56 AM ICT 7:18 PM ICT
Moon 11:58 AM ICT 11:47 PM ICT
Length of Visible Light 12h 43m
Length of Day
12h 00m
Tomorrow will be 0m 46s shorter.
Waxing Crescent, 48% of the Moon is Illuminated
Today
Waxing Crescent
Oct 1
First Quarter
Oct 8
Full
Oct 15
Last Quarter
Oct 23
New

Today's Extremes

Country Highs Country Lows

Community

WunderPhotos

Upload Photos

1,757,960 photos uploaded!

Nearby

Snow Depth

Not available.

Earthquake Activity

City Distance Mag. Time & Date
No recent earthquake activity has been reported nearby.
Minimum magnitude displayed is 2.5.

Coastal Water Temperatures

Place Temperature
No Stations Reporting

Nearby Weather Stations